Aviation Digital Data Service (ADDS)

Output produced by TAFs form (1002 UTC 30 September 2016)
found at http://aviationweather.gov/adds/tafs/
 
KTCS 300520Z 3006/0106 30006KT P6SM VCTS SCT060CB SCT120 BKN200 
     TEMPO 3006/3008 VRB15G25KT -TSRA BKN060CB BKN120 BKN200 
     FM301000 05009KT P6SM VCSH SCT050 BKN120 OVC180 
     FM301900 14010KT P6SM SCT060 BKN110 BKN180 
     FM010400 22008KT P6SM FEW040 BKN090 BKN170